createdAt,value
2022-11-09T00:01:03.238Z,79.06
2022-11-09T00:03:36.048Z,79.50
2022-11-09T00:06:03.105Z,79.41
2022-11-09T00:08:30.174Z,79.40
2022-11-09T00:11:11.648Z,79.39
2022-11-09T00:13:40.141Z,79.27
2022-11-09T00:16:08.931Z,79.63
2022-11-09T00:18:36.831Z,79.49
2022-11-09T00:21:12.982Z,79.86
2022-11-09T00:23:39.932Z,79.96
2022-11-09T00:26:08.774Z,79.67
2022-11-09T00:28:36.209Z,79.69
2022-11-09T00:31:05.723Z,79.50
2022-11-09T00:33:33.590Z,79.97
2022-11-09T00:36:07.508Z,79.99
2022-11-09T00:38:40.421Z,79.82
2022-11-09T00:41:09.262Z,79.89
2022-11-09T00:43:36.674Z,79.98
2022-11-09T00:46:04.100Z,79.83
2022-11-09T00:48:31.385Z,79.68
2022-11-09T00:51:01.352Z,79.53
2022-11-09T00:53:31.090Z,79.86
2022-11-09T00:56:06.651Z,79.66
2022-11-09T00:58:36.984Z,79.77
2022-11-09T01:01:30.293Z,79.90
2022-11-09T01:03:57.584Z,79.92
2022-11-09T01:06:26.694Z,80.07
2022-11-09T01:08:53.817Z,79.95
2022-11-09T01:11:22.501Z,79.61
2022-11-09T01:13:52.221Z,79.78
2022-11-09T01:16:23.824Z,79.56
2022-11-09T01:18:54.243Z,79.82
2022-11-09T01:21:21.220Z,79.97
2022-11-09T01:23:48.379Z,79.56
2022-11-09T01:26:16.399Z,79.69
2022-11-09T01:28:44.104Z,79.52
2022-11-09T01:31:17.718Z,79.56
2022-11-09T01:33:45.095Z,79.75
2022-11-09T01:36:14.593Z,79.70
2022-11-09T01:38:41.642Z,79.78
2022-11-09T01:41:14.560Z,79.95
2022-11-09T01:43:41.581Z,79.60
2022-11-09T01:46:18.531Z,79.94
2022-11-09T01:49:03.939Z,79.94
2022-11-09T01:51:36.359Z,80.37
2022-11-09T01:54:11.145Z,79.89
2022-11-09T01:56:38.958Z,79.82
2022-11-09T01:59:12.713Z,79.93
2022-11-09T02:01:42.117Z,79.91
2022-11-09T02:04:19.934Z,79.98
2022-11-09T02:06:47.880Z,80.04
2022-11-09T02:09:27.686Z,80.30
2022-11-09T02:11:54.742Z,79.88
2022-11-09T02:14:24.067Z,79.95
2022-11-09T02:16:51.515Z,80.05
2022-11-09T02:19:18.621Z,79.83
2022-11-09T02:21:45.760Z,80.28
2022-11-09T02:24:12.932Z,79.68
2022-11-09T02:26:49.175Z,79.86
2022-11-09T02:29:26.438Z,80.07
2022-11-09T02:32:01.572Z,80.19
2022-11-09T02:34:30.442Z,79.82
2022-11-09T02:36:58.564Z,79.79
2022-11-09T02:39:28.004Z,80.40
2022-11-09T02:42:21.225Z,80.43
2022-11-09T02:44:58.617Z,80.87
2022-11-09T02:47:26.240Z,80.07
2022-11-09T02:49:53.238Z,80.06
2022-11-09T02:52:20.421Z,80.56
2022-11-09T02:54:47.692Z,80.12
2022-11-09T02:57:14.899Z,80.42
2022-11-09T02:59:42.824Z,80.65
2022-11-09T03:02:59.903Z,80.82
2022-11-09T03:05:27.005Z,80.31
2022-11-09T03:07:54.100Z,80.30
2022-11-09T03:10:22.548Z,80.47
2022-11-09T03:12:49.717Z,80.54
2022-11-09T03:15:17.970Z,80.78
2022-11-09T03:17:46.197Z,80.34
2022-11-09T03:20:13.657Z,80.87
2022-11-09T03:22:42.138Z,80.63
2022-11-09T03:25:09.742Z,80.86
2022-11-09T03:27:37.231Z,80.54
2022-11-09T03:30:06.711Z,80.53
2022-11-09T03:32:33.677Z,80.68
2022-11-09T03:35:00.838Z,80.72
2022-11-09T03:37:27.771Z,80.80
2022-11-09T03:39:54.907Z,80.58
2022-11-09T03:42:21.826Z,80.52
2022-11-09T03:44:49.519Z,80.83
2022-11-09T03:47:16.510Z,80.48
2022-11-09T03:49:43.425Z,80.61
2022-11-09T03:52:10.362Z,80.37
2022-11-09T03:54:38.302Z,80.52
2022-11-09T03:57:05.280Z,80.34
2022-11-09T03:59:32.180Z,80.63
2022-11-09T04:01:59.227Z,80.14
2022-11-09T04:04:26.248Z,80.29
2022-11-09T04:06:53.250Z,80.59
2022-11-09T04:09:21.095Z,80.62
2022-11-09T04:11:48.506Z,80.15
2022-11-09T04:14:15.442Z,80.23
2022-11-09T04:16:42.810Z,80.14
2022-11-09T04:19:09.740Z,79.94
2022-11-09T04:21:36.772Z,80.23
2022-11-09T04:24:05.169Z,80.21
2022-11-09T04:26:32.096Z,80.09
2022-11-09T04:28:59.312Z,80.03
2022-11-09T04:31:28.174Z,80.06
2022-11-09T04:33:55.776Z,80.30
2022-11-09T04:36:24.411Z,80.30
2022-11-09T04:38:55.839Z,80.25
2022-11-09T04:41:22.914Z,79.90
2022-11-09T04:43:49.864Z,80.11
2022-11-09T04:46:16.844Z,79.82
2022-11-09T04:48:45.463Z,79.83
2022-11-09T04:51:13.662Z,79.96
2022-11-09T04:53:40.908Z,79.83
2022-11-09T04:56:33.016Z,80.08
2022-11-09T04:59:00.094Z,79.77
2022-11-09T05:01:27.117Z,80.19
2022-11-09T05:03:55.257Z,80.03
2022-11-09T05:06:34.310Z,80.10
2022-11-09T05:09:06.370Z,79.58
2022-11-09T05:11:35.108Z,80.02
2022-11-09T05:14:02.707Z,80.01
2022-11-09T05:16:30.438Z,79.78
2022-11-09T05:18:57.412Z,79.73
2022-11-09T05:21:24.354Z,79.58
2022-11-09T05:24:00.396Z,79.72
2022-11-09T05:26:32.629Z,79.79
2022-11-09T05:29:03.337Z,79.60
2022-11-09T05:31:31.369Z,79.39
2022-11-09T05:34:23.185Z,79.40
2022-11-09T05:36:50.334Z,79.34
2022-11-09T05:39:17.338Z,79.46
2022-11-09T05:41:44.435Z,79.48
2022-11-09T05:44:11.419Z,79.39
2022-11-09T05:46:38.386Z,79.19
2022-11-09T05:49:05.400Z,79.29
2022-11-09T05:51:32.367Z,78.70
2022-11-09T05:53:59.267Z,78.85
2022-11-09T05:56:26.191Z,79.10
2022-11-09T05:58:53.188Z,79.00
2022-11-09T06:01:20.208Z,78.67
2022-11-09T06:03:47.841Z,78.96
2022-11-09T06:06:16.745Z,78.83
2022-11-09T06:08:43.726Z,78.60
2022-11-09T06:11:15.611Z,78.76
2022-11-09T06:13:45.551Z,78.58
2022-11-09T06:16:12.717Z,78.83
2022-11-09T06:18:39.709Z,78.91
2022-11-09T06:21:06.747Z,78.72
2022-11-09T06:23:34.623Z,78.58
2022-11-09T06:26:09.995Z,78.67
2022-11-09T06:28:41.293Z,79.01
2022-11-09T06:31:13.055Z,79.06
2022-11-09T06:33:40.056Z,79.01
2022-11-09T06:36:07.198Z,79.48
2022-11-09T06:38:34.300Z,79.18
2022-11-09T06:41:01.466Z,79.06
2022-11-09T06:43:30.385Z,79.20
2022-11-09T06:45:57.427Z,78.95
2022-11-09T06:48:25.054Z,79.33
2022-11-09T06:50:51.948Z,79.10
2022-11-09T06:53:19.268Z,79.16
2022-11-09T06:55:50.549Z,79.55
2022-11-09T06:58:18.529Z,79.47
2022-11-09T07:00:45.938Z,79.57
2022-11-09T07:03:18.571Z,79.44
2022-11-09T07:05:46.564Z,79.54
2022-11-09T07:08:14.586Z,79.31
2022-11-09T07:10:42.220Z,79.16
2022-11-09T07:13:09.743Z,78.97
2022-11-09T07:15:38.039Z,79.25
2022-11-09T07:18:08.035Z,78.97
2022-11-09T07:20:35.237Z,79.31
2022-11-09T07:23:02.338Z,79.36
2022-11-09T07:25:29.333Z,78.91
2022-11-09T07:28:03.960Z,79.40
2022-11-09T07:30:31.140Z,78.84
2022-11-09T07:33:10.497Z,78.83
2022-11-09T07:35:38.306Z,78.66
2022-11-09T07:38:05.485Z,78.90
2022-11-09T07:40:32.582Z,78.56
2022-11-09T07:43:01.096Z,78.89
2022-11-09T07:45:29.803Z,79.14
2022-11-09T07:48:00.404Z,78.90
2022-11-09T07:50:29.677Z,79.20
2022-11-09T07:52:58.187Z,79.15
2022-11-09T07:55:26.189Z,79.09
2022-11-09T07:57:58.495Z,79.38
2022-11-09T08:00:27.367Z,79.03
2022-11-09T08:02:54.741Z,78.77
2022-11-09T08:05:22.537Z,79.04
2022-11-09T08:07:54.969Z,79.23
2022-11-09T08:10:22.516Z,79.00
2022-11-09T08:13:01.804Z,78.98
2022-11-09T08:15:29.492Z,79.29
2022-11-09T08:18:06.510Z,79.22
2022-11-09T08:20:34.882Z,79.38
2022-11-09T08:23:04.640Z,79.10
2022-11-09T08:25:35.248Z,78.93
2022-11-09T08:28:03.771Z,79.35
2022-11-09T08:30:31.500Z,79.15
2022-11-09T08:33:03.612Z,79.17
2022-11-09T08:35:31.199Z,78.82
2022-11-09T08:38:02.770Z,79.44
2022-11-09T08:40:31.123Z,79.15
2022-11-09T08:43:03.835Z,79.19
2022-11-09T08:45:34.106Z,78.92
2022-11-09T08:48:02.169Z,79.28
2022-11-09T08:50:31.222Z,79.13
2022-11-09T08:52:58.363Z,79.20
2022-11-09T08:55:25.400Z,78.79
2022-11-09T08:57:56.805Z,78.95
2022-11-09T09:00:24.082Z,79.01
2022-11-09T09:02:51.319Z,78.91
2022-11-09T09:05:18.856Z,79.12
2022-11-09T09:07:46.029Z,79.28
2022-11-09T09:10:13.086Z,79.16
2022-11-09T09:12:40.041Z,78.98
2022-11-09T09:15:07.579Z,78.66
2022-11-09T09:17:35.756Z,79.19
2022-11-09T09:20:04.135Z,79.36
2022-11-09T09:22:32.515Z,78.61
2022-11-09T09:25:00.029Z,78.77
2022-11-09T09:27:27.355Z,78.69
2022-11-09T09:29:54.259Z,78.60
2022-11-09T09:32:21.290Z,79.07
2022-11-09T09:34:48.565Z,78.76
2022-11-09T09:37:17.551Z,79.25
2022-11-09T09:39:44.675Z,78.88
2022-11-09T09:42:17.655Z,78.97
2022-11-09T09:44:49.702Z,79.12
2022-11-09T09:48:02.409Z,78.82
2022-11-09T09:50:47.823Z,79.17
2022-11-09T09:53:24.376Z,78.87
2022-11-09T09:56:02.800Z,79.19
2022-11-09T09:58:33.222Z,79.13
2022-11-09T10:01:14.417Z,79.31
2022-11-09T10:03:41.598Z,78.88
2022-11-09T10:06:26.832Z,79.12
2022-11-09T10:09:09.997Z,79.50
2022-11-09T10:12:12.631Z,79.52
2022-11-09T10:15:00.652Z,79.44
2022-11-09T10:17:43.204Z,79.16
2022-11-09T10:20:33.842Z,79.36
2022-11-09T10:23:06.776Z,79.26
2022-11-09T10:26:02.290Z,79.36
2022-11-09T10:28:42.346Z,79.13
2022-11-09T10:31:21.970Z,79.01
2022-11-09T10:34:00.736Z,79.02
2022-11-09T10:36:59.782Z,79.00
2022-11-09T10:39:40.067Z,79.48
2022-11-09T10:42:25.760Z,79.14
2022-11-09T10:45:37.760Z,79.67
2022-11-09T10:48:37.553Z,79.35
2022-11-09T10:51:43.426Z,79.55
2022-11-09T10:54:33.887Z,79.29
2022-11-09T10:57:21.335Z,79.55
2022-11-09T11:00:15.496Z,79.69
2022-11-09T11:03:11.513Z,79.58
2022-11-09T11:06:02.460Z,79.11
2022-11-09T11:09:13.008Z,79.49
2022-11-09T11:12:17.063Z,79.51
2022-11-09T11:15:02.808Z,79.45
2022-11-09T11:17:48.594Z,79.19
2022-11-09T11:20:38.360Z,80.16
2022-11-09T11:23:26.411Z,79.13
2022-11-09T11:26:18.228Z,79.86
2022-11-09T11:29:21.649Z,79.73
2022-11-09T11:32:19.132Z,79.69
2022-11-09T11:35:13.005Z,80.07
2022-11-09T11:38:22.895Z,80.20
2022-11-09T11:41:33.563Z,80.21
2022-11-09T11:44:59.448Z,79.85
2022-11-09T11:48:26.311Z,79.90
2022-11-09T11:51:13.862Z,79.86
2022-11-09T11:54:13.794Z,79.62
2022-11-09T11:57:23.418Z,79.92
2022-11-09T12:00:15.595Z,80.18
2022-11-09T12:03:19.425Z,80.48
2022-11-09T12:06:34.920Z,80.23
2022-11-09T12:09:25.710Z,80.16
2022-11-09T12:12:45.540Z,80.16
2022-11-09T12:15:50.900Z,80.38
2022-11-09T12:19:06.920Z,80.79
2022-11-09T12:22:26.777Z,80.21
2022-11-09T12:25:45.174Z,80.47
2022-11-09T12:28:56.107Z,80.15
2022-11-09T12:32:01.177Z,80.02
2022-11-09T12:34:57.364Z,79.98
2022-11-09T12:37:57.656Z,80.36
2022-11-09T12:41:06.714Z,80.45
2022-11-09T12:43:52.763Z,80.16
2022-11-09T12:47:11.889Z,80.25
2022-11-09T12:49:58.007Z,80.35
2022-11-09T12:52:47.978Z,80.02
2022-11-09T12:56:05.874Z,80.51
2022-11-09T12:59:28.776Z,79.92
2022-11-09T13:02:37.959Z,79.97
2022-11-09T13:05:39.268Z,80.58
2022-11-09T13:08:32.678Z,79.79
2022-11-09T13:11:35.140Z,79.85
2022-11-09T13:14:22.070Z,80.07
2022-11-09T13:17:37.017Z,80.41
2022-11-09T13:20:53.853Z,80.47
2022-11-09T13:26:48.792Z,80.04
2022-11-09T13:29:40.284Z,80.47
2022-11-09T13:32:27.457Z,80.24
2022-11-09T13:35:38.717Z,80.28
2022-11-09T13:38:32.753Z,80.21
2022-11-09T13:41:32.103Z,80.61
2022-11-09T13:44:21.598Z,80.38
2022-11-09T13:47:34.897Z,80.88
2022-11-09T13:50:25.259Z,80.10
2022-11-09T13:53:49.853Z,80.37
2022-11-09T13:56:40.230Z,80.04
2022-11-09T13:59:28.605Z,80.05
2022-11-09T14:02:25.401Z,80.42
2022-11-09T14:05:29.577Z,80.60
2022-11-09T14:08:25.516Z,80.29
2022-11-09T14:11:40.232Z,80.69
2022-11-09T14:14:35.383Z,80.50
2022-11-09T14:17:35.061Z,80.60
2022-11-09T14:20:51.015Z,80.26
2022-11-09T14:23:36.732Z,79.97
2022-11-09T14:26:25.327Z,79.46
2022-11-09T14:29:27.201Z,80.09
2022-11-09T14:32:22.140Z,79.84
2022-11-09T14:35:23.161Z,80.24
2022-11-09T14:38:42.645Z,80.04
2022-11-09T14:41:28.673Z,79.79
2022-11-09T14:44:24.074Z,80.03
2022-11-09T14:47:18.129Z,79.96
2022-11-09T14:50:04.467Z,79.85
2022-11-09T14:52:52.993Z,80.56
2022-11-09T14:55:42.419Z,80.41
2022-11-09T14:58:30.197Z,80.05
2022-11-09T15:01:21.582Z,79.54
2022-11-09T15:04:22.964Z,80.33
2022-11-09T15:07:18.352Z,79.85
2022-11-09T15:10:18.706Z,80.08
2022-11-09T15:13:04.429Z,80.13
2022-11-09T15:15:55.854Z,79.94
2022-11-09T15:18:47.069Z,79.90
2022-11-09T15:21:38.143Z,79.79
2022-11-09T15:24:29.072Z,80.20
2022-11-09T15:27:34.663Z,79.88
2022-11-09T15:30:48.783Z,80.01
2022-11-09T15:33:53.367Z,80.17
2022-11-09T15:36:45.097Z,79.73
2022-11-09T15:39:32.719Z,79.52
2022-11-09T15:42:19.379Z,79.66
2022-11-09T15:45:06.646Z,79.81
2022-11-09T15:47:55.373Z,79.70
2022-11-09T15:50:42.451Z,79.76
2022-11-09T15:53:29.716Z,79.57
2022-11-09T15:56:24.490Z,79.95
2022-11-09T15:59:27.080Z,79.99
2022-11-09T16:02:15.296Z,79.77
2022-11-09T16:05:01.799Z,80.04
2022-11-09T16:08:01.898Z,79.99
2022-11-09T16:10:47.826Z,79.62
2022-11-09T16:13:34.701Z,80.09
2022-11-09T16:16:29.616Z,80.20
2022-11-09T16:19:15.912Z,79.71
2022-11-09T16:22:03.121Z,80.09
2022-11-09T16:24:49.040Z,80.04
2022-11-09T16:27:49.767Z,79.50
2022-11-09T16:30:46.351Z,79.97
2022-11-09T16:33:34.901Z,79.60
2022-11-09T16:36:24.549Z,79.47
2022-11-09T16:39:19.023Z,79.36
2022-11-09T16:42:10.752Z,79.70
2022-11-09T16:45:14.460Z,79.49
2022-11-09T16:48:22.131Z,79.57
2022-11-09T16:51:12.832Z,79.43
2022-11-09T16:54:06.132Z,79.29
2022-11-09T16:56:55.406Z,79.12
2022-11-09T16:59:43.702Z,79.22
2022-11-09T17:02:31.314Z,78.91
2022-11-09T17:05:32.796Z,78.87
2022-11-09T17:08:25.918Z,78.63
2022-11-09T17:11:14.986Z,78.64
2022-11-09T17:14:01.405Z,79.13
2022-11-09T17:16:49.594Z,79.04
2022-11-09T17:19:36.975Z,78.94
2022-11-09T17:22:22.819Z,78.55
2022-11-09T17:25:09.913Z,78.95
2022-11-09T17:27:56.940Z,78.44
2022-11-09T17:30:43.153Z,78.38
2022-11-09T17:33:38.005Z,78.37
2022-11-09T17:36:48.874Z,78.98
2022-11-09T17:39:33.281Z,78.28
2022-11-09T17:42:19.432Z,78.14
2022-11-09T17:45:05.629Z,78.66
2022-11-09T17:47:51.114Z,78.11
2022-11-09T17:50:37.758Z,78.00
2022-11-09T17:53:31.468Z,78.17
2022-11-09T17:56:18.098Z,78.14
2022-11-09T17:59:05.898Z,78.12
2022-11-09T18:01:57.333Z,77.72
2022-11-09T18:04:43.797Z,77.95
2022-11-09T18:07:31.451Z,78.17
2022-11-09T18:10:17.690Z,78.36
2022-11-09T18:13:32.697Z,77.84
2022-11-09T18:16:20.975Z,77.51
2022-11-09T18:19:07.401Z,78.03
2022-11-09T18:21:53.650Z,77.35
2022-11-09T18:24:39.602Z,78.09
2022-11-09T18:27:30.073Z,77.94
2022-11-09T18:30:17.664Z,77.92
2022-11-09T18:33:02.804Z,77.81
2022-11-09T18:36:03.856Z,77.41
2022-11-09T18:38:52.132Z,77.76
2022-11-09T18:41:37.731Z,77.66
2022-11-09T18:44:26.449Z,77.30
2022-11-09T18:47:13.815Z,77.60
2022-11-09T18:49:59.703Z,77.41
2022-11-09T18:52:45.254Z,78.15
2022-11-09T18:55:30.967Z,77.37
2022-11-09T18:58:17.814Z,77.88
2022-11-09T19:01:08.162Z,77.93
2022-11-09T19:03:59.063Z,77.81
2022-11-09T19:06:45.944Z,77.48
2022-11-09T19:09:35.688Z,77.72
2022-11-09T19:12:20.989Z,77.80
2022-11-09T19:15:07.162Z,77.59
2022-11-09T19:17:56.045Z,77.42
2022-11-09T19:20:41.909Z,77.64
2022-11-09T19:23:33.925Z,77.64
2022-11-09T19:26:22.912Z,78.00
2022-11-09T19:29:13.182Z,77.58
2022-11-09T19:31:59.459Z,77.37
2022-11-09T19:34:46.751Z,77.38
2022-11-09T19:37:32.208Z,77.58
2022-11-09T19:40:18.103Z,77.54
2022-11-09T19:43:03.772Z,77.52
2022-11-09T19:45:49.507Z,77.47
2022-11-09T19:48:35.412Z,77.37
2022-11-09T19:51:21.768Z,77.20
2022-11-09T19:54:07.831Z,77.26
2022-11-09T19:56:53.372Z,77.49
2022-11-09T19:59:39.347Z,77.28
2022-11-09T20:02:24.937Z,77.16
2022-11-09T20:05:13.737Z,77.20
2022-11-09T20:07:59.259Z,77.11
2022-11-09T20:10:44.774Z,77.01
2022-11-09T20:13:30.587Z,77.16
2022-11-09T20:16:16.304Z,76.77
2022-11-09T20:19:04.868Z,77.06
2022-11-09T20:21:50.369Z,76.84
2022-11-09T20:24:36.973Z,77.01
2022-11-09T20:27:22.331Z,77.13
2022-11-09T20:30:08.392Z,77.08
2022-11-09T20:32:54.002Z,76.66
2022-11-09T20:35:42.989Z,76.96
2022-11-09T20:38:32.374Z,76.98
2022-11-09T20:41:21.711Z,76.95
2022-11-09T20:44:10.691Z,77.21
2022-11-09T20:46:56.282Z,76.74
2022-11-09T20:49:42.059Z,76.92
2022-11-09T20:52:27.711Z,76.90
2022-11-09T20:55:13.969Z,76.72
2022-11-09T20:57:59.570Z,77.22
2022-11-09T21:00:45.295Z,77.09
2022-11-09T21:03:31.448Z,76.93
2022-11-09T21:06:18.052Z,76.89
2022-11-09T21:09:05.730Z,76.77
2022-11-09T21:12:10.323Z,76.60
2022-11-09T21:14:56.119Z,77.21
2022-11-09T21:17:41.826Z,76.62
2022-11-09T21:20:27.215Z,76.88
2022-11-09T21:23:13.170Z,76.48
2022-11-09T21:26:18.823Z,76.83
2022-11-09T21:29:23.512Z,76.71
2022-11-09T21:32:11.112Z,76.86
2022-11-09T21:34:56.474Z,76.56
2022-11-09T21:37:41.931Z,76.62
2022-11-09T21:40:28.483Z,76.87
2022-11-09T21:43:15.282Z,76.71
2022-11-09T21:46:00.929Z,76.45
2022-11-09T21:48:46.460Z,76.53
2022-11-09T21:51:34.055Z,76.73
2022-11-09T21:54:20.401Z,76.54
2022-11-09T21:57:06.110Z,76.85
2022-11-09T21:59:51.645Z,76.81
2022-11-09T22:02:37.628Z,76.21
2022-11-09T22:05:23.473Z,76.51
2022-11-09T22:08:09.021Z,76.45
2022-11-09T22:11:07.746Z,76.79
2022-11-09T22:14:11.709Z,76.63
2022-11-09T22:16:57.049Z,76.65
2022-11-09T22:20:01.049Z,76.58
2022-11-09T22:22:46.720Z,76.47
2022-11-09T22:25:32.509Z,76.30
2022-11-09T22:28:17.980Z,76.17
2022-11-09T22:31:05.261Z,76.12
2022-11-09T22:33:51.632Z,76.63
2022-11-09T22:36:37.085Z,76.49
2022-11-09T22:39:22.932Z,76.27
2022-11-09T22:42:09.053Z,76.35
2022-11-09T22:44:54.707Z,76.15
2022-11-09T22:47:39.832Z,76.38
2022-11-09T22:50:25.566Z,76.10
2022-11-09T22:53:11.100Z,76.25
2022-11-09T22:55:58.615Z,76.13
2022-11-09T22:58:46.004Z,76.25
2022-11-09T23:01:31.888Z,76.28
2022-11-09T23:04:17.234Z,76.23
2022-11-09T23:07:03.278Z,76.05
2022-11-09T23:09:48.992Z,76.30
2022-11-09T23:12:35.084Z,76.52
2022-11-09T23:15:20.556Z,76.09
2022-11-09T23:18:24.657Z,76.24
2022-11-09T23:21:10.644Z,75.97
2022-11-09T23:24:03.166Z,76.29
2022-11-09T23:26:48.801Z,75.94
2022-11-09T23:29:35.363Z,76.19
2022-11-09T23:32:21.014Z,76.22
2022-11-09T23:35:07.153Z,75.94
2022-11-09T23:38:02.109Z,75.96
2022-11-09T23:40:47.946Z,76.14
2022-11-09T23:43:33.568Z,75.89
2022-11-09T23:46:19.345Z,75.96
2022-11-09T23:49:05.039Z,75.65
2022-11-09T23:51:50.744Z,75.84
2022-11-09T23:54:38.198Z,75.65
2022-11-09T23:57:23.662Z,76.14
